createdAt,value
2022-08-19T00:01:30.454Z,79.89
2022-08-19T00:04:00.021Z,79.73
2022-08-19T00:06:28.277Z,80.12
2022-08-19T00:08:56.320Z,80.32
2022-08-19T00:11:26.002Z,80.10
2022-08-19T00:13:54.069Z,80.18
2022-08-19T00:16:26.915Z,80.96
2022-08-19T00:18:56.197Z,81.03
2022-08-19T00:21:24.076Z,80.53
2022-08-19T00:23:51.862Z,80.71
2022-08-19T00:26:19.607Z,80.48
2022-08-19T00:28:47.551Z,80.21
2022-08-19T00:31:17.151Z,80.42
2022-08-19T00:33:46.194Z,80.57
2022-08-19T00:36:13.981Z,81.34
2022-08-19T00:38:43.834Z,80.83
2022-08-19T00:41:14.141Z,80.96
2022-08-19T00:43:42.182Z,81.04
2022-08-19T00:46:10.165Z,80.68
2022-08-19T00:48:38.174Z,80.60
2022-08-19T00:51:07.901Z,80.54
2022-08-19T00:53:36.006Z,80.71
2022-08-19T00:56:07.071Z,80.40
2022-08-19T00:58:35.807Z,81.08
2022-08-19T01:01:04.250Z,81.14
2022-08-19T01:03:57.296Z,80.80
2022-08-19T01:06:21.018Z,80.75
2022-08-19T01:08:50.156Z,81.07
2022-08-19T01:11:18.492Z,81.71
2022-08-19T01:13:50.003Z,81.08
2022-08-19T01:16:19.187Z,81.56
2022-08-19T01:18:46.936Z,81.87
2022-08-19T01:21:20.510Z,81.67
2022-08-19T01:23:49.842Z,81.33
2022-08-19T01:26:20.198Z,81.49
2022-08-19T01:28:51.036Z,81.58
2022-08-19T01:31:26.776Z,81.70
2022-08-19T01:33:57.777Z,81.89
2022-08-19T01:36:29.290Z,81.42
2022-08-19T01:38:59.020Z,82.16
2022-08-19T01:41:27.116Z,82.04
2022-08-19T01:44:09.761Z,82.25
2022-08-19T01:46:42.900Z,82.42
2022-08-19T01:49:11.056Z,82.22
2022-08-19T01:51:39.694Z,82.67
2022-08-19T01:54:09.593Z,82.40
2022-08-19T01:56:37.630Z,82.45
2022-08-19T01:59:07.634Z,82.36
2022-08-19T02:01:35.631Z,82.56
2022-08-19T02:04:04.391Z,82.49
2022-08-19T02:06:32.221Z,82.27
2022-08-19T02:08:59.953Z,82.70
2022-08-19T02:11:32.286Z,82.86
2022-08-19T02:14:00.387Z,82.70
2022-08-19T02:16:28.104Z,82.23
2022-08-19T02:18:56.204Z,81.95
2022-08-19T02:21:25.122Z,82.59
2022-08-19T02:23:53.159Z,82.75
2022-08-19T02:26:20.884Z,82.23
2022-08-19T02:28:50.122Z,82.67
2022-08-19T02:31:19.638Z,82.58
2022-08-19T02:33:47.797Z,82.74
2022-08-19T02:36:20.665Z,83.02
2022-08-19T02:38:54.790Z,82.97
2022-08-19T02:41:26.601Z,82.78
2022-08-19T02:44:26.448Z,83.03
2022-08-19T02:46:45.048Z,82.69
2022-08-19T02:49:12.728Z,82.71
2022-08-19T02:51:43.553Z,82.23
2022-08-19T02:54:12.142Z,82.48
2022-08-19T02:56:41.603Z,82.71
2022-08-19T02:59:12.549Z,82.58
2022-08-19T03:01:43.063Z,82.42
2022-08-19T03:04:12.939Z,82.55
2022-08-19T03:06:41.925Z,83.07
2022-08-19T03:09:09.790Z,82.84
2022-08-19T03:11:37.843Z,82.95
2022-08-19T03:14:07.076Z,83.15
2022-08-19T03:16:42.313Z,83.15
2022-08-19T03:19:10.079Z,83.11
2022-08-19T03:21:37.772Z,83.02
2022-08-19T03:24:07.681Z,83.39
2022-08-19T03:26:36.086Z,83.42
2022-08-19T03:29:08.652Z,83.85
2022-08-19T03:31:45.626Z,84.03
2022-08-19T03:34:23.070Z,84.23
2022-08-19T03:36:50.879Z,84.37
2022-08-19T03:39:18.915Z,84.57
2022-08-19T03:41:48.609Z,84.85
2022-08-19T03:44:18.945Z,84.59
2022-08-19T03:46:49.617Z,84.69
2022-08-19T03:49:18.197Z,84.59
2022-08-19T03:51:47.812Z,84.60
2022-08-19T03:54:17.404Z,84.56
2022-08-19T03:56:46.933Z,84.71
2022-08-19T03:59:16.848Z,84.74
2022-08-19T04:01:45.049Z,84.56
2022-08-19T04:04:14.290Z,84.35
2022-08-19T04:06:42.713Z,84.13
2022-08-19T04:09:12.136Z,84.76
2022-08-19T04:11:44.291Z,84.76
2022-08-19T04:14:13.818Z,85.00
2022-08-19T04:16:47.220Z,84.74
2022-08-19T04:19:17.692Z,84.97
2022-08-19T04:21:46.481Z,84.86
2022-08-19T04:24:14.545Z,84.69
2022-08-19T04:26:42.857Z,84.90
2022-08-19T04:29:12.964Z,85.40
2022-08-19T04:31:42.105Z,85.54
2022-08-19T04:34:12.199Z,85.68
2022-08-19T04:36:45.463Z,85.48
2022-08-19T04:39:15.221Z,85.63
2022-08-19T04:42:00.374Z,85.71
2022-08-19T04:44:31.495Z,86.17
2022-08-19T04:47:01.468Z,85.86
2022-08-19T04:49:31.016Z,85.98
2022-08-19T04:52:00.096Z,86.13
2022-08-19T04:54:37.978Z,86.66
2022-08-19T04:57:09.706Z,86.79
2022-08-19T04:59:38.394Z,86.67
2022-08-19T05:02:06.787Z,86.35
2022-08-19T05:04:35.185Z,86.61
2022-08-19T05:07:04.241Z,87.02
2022-08-19T05:09:53.288Z,86.86
2022-08-19T05:12:20.399Z,86.84
2022-08-19T05:14:48.828Z,86.66
2022-08-19T05:17:36.292Z,86.21
2022-08-19T05:20:23.522Z,86.53
2022-08-19T05:22:53.433Z,86.51
2022-08-19T05:25:23.315Z,86.15
2022-08-19T05:27:51.497Z,85.88
2022-08-19T05:30:33.597Z,85.58
2022-08-19T05:33:07.412Z,85.87
2022-08-19T05:35:35.098Z,85.43
2022-08-19T05:38:04.182Z,85.27
2022-08-19T05:40:31.958Z,85.10
2022-08-19T05:42:59.844Z,84.81
2022-08-19T05:45:28.800Z,84.49
2022-08-19T05:47:56.824Z,84.62
2022-08-19T05:50:24.599Z,85.12
2022-08-19T05:52:52.661Z,84.98
2022-08-19T05:55:23.106Z,84.46
2022-08-19T05:57:50.854Z,84.60
2022-08-19T06:00:22.716Z,84.53
2022-08-19T06:02:53.154Z,84.18
2022-08-19T06:05:21.121Z,84.14
2022-08-19T06:07:48.832Z,83.79
2022-08-19T06:10:16.711Z,83.42
2022-08-19T06:12:45.890Z,83.27
2022-08-19T06:15:15.307Z,82.93
2022-08-19T06:17:45.264Z,82.50
2022-08-19T06:20:15.229Z,82.52
2022-08-19T06:22:44.245Z,82.80
2022-08-19T06:25:12.469Z,81.95
2022-08-19T06:27:58.534Z,82.01
2022-08-19T06:30:29.844Z,81.86
2022-08-19T06:32:57.474Z,81.16
2022-08-19T06:35:26.295Z,80.88
2022-08-19T06:37:54.639Z,80.73
2022-08-19T06:40:22.625Z,80.22
2022-08-19T06:42:54.939Z,79.89
2022-08-19T06:45:24.820Z,79.73
2022-08-19T06:47:56.739Z,79.41
2022-08-19T06:50:24.992Z,79.66
2022-08-19T06:52:53.383Z,79.65
2022-08-19T06:55:21.609Z,79.81
2022-08-19T06:57:49.452Z,79.96
2022-08-19T07:00:18.025Z,80.46
2022-08-19T07:02:50.673Z,80.23
2022-08-19T07:05:24.687Z,79.49
2022-08-19T07:07:52.392Z,79.78
2022-08-19T07:10:20.382Z,80.49
2022-08-19T07:12:48.587Z,80.01
2022-08-19T07:15:16.812Z,79.83
2022-08-19T07:17:47.997Z,79.22
2022-08-19T07:20:20.521Z,79.21
2022-08-19T07:22:50.375Z,79.04
2022-08-19T07:25:18.807Z,78.27
2022-08-19T07:27:48.710Z,78.26
2022-08-19T07:30:23.297Z,78.56
2022-08-19T07:32:54.288Z,77.57
2022-08-19T07:35:22.045Z,77.39
2022-08-19T07:40:18.702Z,76.44
2022-08-19T07:42:46.345Z,76.01
2022-08-19T07:45:14.361Z,75.41
2022-08-19T07:47:58.450Z,75.18
2022-08-19T07:50:26.616Z,75.15
2022-08-19T07:52:55.705Z,74.49
2022-08-19T07:55:41.061Z,74.33
2022-08-19T07:58:11.958Z,74.36
2022-08-19T08:00:39.911Z,74.50
2022-08-19T08:03:07.641Z,74.53
2022-08-19T08:05:52.587Z,73.63
2022-08-19T08:08:44.305Z,73.63
2022-08-19T08:11:17.986Z,73.26
2022-08-19T08:14:01.359Z,72.59
2022-08-19T08:16:32.856Z,72.84
2022-08-19T08:19:02.472Z,72.19
2022-08-19T08:21:35.528Z,72.08
2022-08-19T08:24:05.151Z,72.14
2022-08-19T08:26:34.545Z,71.68
2022-08-19T08:29:02.442Z,72.05
2022-08-19T08:31:38.661Z,72.91
2022-08-19T08:34:06.327Z,73.23
2022-08-19T08:36:34.539Z,72.78
2022-08-19T08:39:02.701Z,73.21
2022-08-19T08:41:37.704Z,73.05
2022-08-19T08:44:06.189Z,72.25
2022-08-19T08:46:39.608Z,72.85
2022-08-19T08:49:18.218Z,72.07
2022-08-19T08:51:59.729Z,71.86
2022-08-19T08:54:32.907Z,71.41
2022-08-19T08:57:06.926Z,70.91
2022-08-19T08:59:37.918Z,69.53
2022-08-19T09:02:05.873Z,69.72
2022-08-19T09:04:34.116Z,69.33
2022-08-19T09:07:18.634Z,69.21
2022-08-19T09:10:07.302Z,68.47
2022-08-19T09:12:50.080Z,68.70
2022-08-19T09:15:21.148Z,67.58
2022-08-19T09:18:02.866Z,67.84
2022-08-19T09:20:32.350Z,67.32
2022-08-19T09:23:00.856Z,66.18
2022-08-19T09:25:29.493Z,67.06
2022-08-19T09:28:05.651Z,66.73
2022-08-19T09:30:43.440Z,66.38
2022-08-19T09:33:11.385Z,65.79
2022-08-19T09:35:50.094Z,66.10
2022-08-19T09:38:21.736Z,65.42
2022-08-19T09:40:50.509Z,64.10
2022-08-19T09:43:33.041Z,63.69
2022-08-19T09:46:02.236Z,63.96
2022-08-19T09:48:29.992Z,62.54
2022-08-19T09:51:04.875Z,61.46
2022-08-19T09:53:32.743Z,61.38
2022-08-19T09:56:04.195Z,59.82
2022-08-19T09:58:33.597Z,60.15
2022-08-19T10:01:03.412Z,59.31
2022-08-19T10:03:32.481Z,57.72
2022-08-19T10:06:01.894Z,59.09
2022-08-19T10:08:32.056Z,58.31
2022-08-19T10:10:59.928Z,58.24
2022-08-19T10:13:49.741Z,58.82
2022-08-19T10:16:20.102Z,58.58
2022-08-19T10:18:49.766Z,58.31
2022-08-19T10:21:20.226Z,56.32
2022-08-19T10:23:49.782Z,55.23
2022-08-19T10:26:21.583Z,56.11
2022-08-19T10:28:51.114Z,55.46
2022-08-19T10:32:00.346Z,56.36
2022-08-19T10:34:27.063Z,57.08
2022-08-19T10:37:00.443Z,56.58
2022-08-19T10:39:30.977Z,56.43
2022-08-19T10:41:59.514Z,55.67
2022-08-19T10:44:32.272Z,53.42
2022-08-19T10:47:01.346Z,53.76
2022-08-19T10:49:29.442Z,53.95
2022-08-19T10:52:18.798Z,53.89
2022-08-19T10:55:08.531Z,54.01
2022-08-19T11:00:27.020Z,54.79
2022-08-19T11:02:55.042Z,54.97
2022-08-19T11:05:24.278Z,54.17
2022-08-19T11:07:53.019Z,54.40
2022-08-19T11:10:22.067Z,53.66
2022-08-19T11:12:55.207Z,51.58
2022-08-19T11:15:25.506Z,52.37
2022-08-19T11:17:55.554Z,53.21
2022-08-19T11:20:24.513Z,53.24
2022-08-19T11:22:53.687Z,54.12
2022-08-19T11:25:21.476Z,54.36
2022-08-19T11:27:51.918Z,53.80
2022-08-19T11:30:19.676Z,51.79
2022-08-19T11:32:49.638Z,51.97
2022-08-19T11:35:17.695Z,52.25
2022-08-19T11:37:45.397Z,51.06
2022-08-19T11:40:13.827Z,51.04
2022-08-19T11:42:57.175Z,51.35
2022-08-19T11:45:25.213Z,50.47
2022-08-19T11:47:54.552Z,50.77
2022-08-19T11:50:24.268Z,51.35
2022-08-19T11:52:52.440Z,49.97
2022-08-19T11:55:20.250Z,48.34
2022-08-19T11:57:48.044Z,48.30
2022-08-19T12:00:16.406Z,49.22
2022-08-19T12:02:44.396Z,49.05
2022-08-19T12:05:13.483Z,49.39
2022-08-19T12:07:44.595Z,48.99
2022-08-19T12:10:12.804Z,48.18
2022-08-19T12:12:43.257Z,48.01
2022-08-19T12:15:12.967Z,48.42
2022-08-19T12:17:41.108Z,48.37
2022-08-19T12:20:11.262Z,48.30
2022-08-19T12:22:40.302Z,48.41
2022-08-19T12:25:09.275Z,48.50
2022-08-19T12:27:40.256Z,47.80
2022-08-19T12:30:12.141Z,47.93
2022-08-19T12:32:41.404Z,47.38
2022-08-19T12:35:10.041Z,47.49
2022-08-19T12:37:37.939Z,47.21
2022-08-19T12:40:08.626Z,47.12
2022-08-19T12:42:36.578Z,46.51
2022-08-19T12:45:04.898Z,46.05
2022-08-19T12:47:34.327Z,46.43
2022-08-19T12:50:09.570Z,46.39
2022-08-19T12:52:38.690Z,46.04
2022-08-19T12:55:09.950Z,46.71
2022-08-19T12:57:37.784Z,47.25
2022-08-19T13:00:11.401Z,46.92
2022-08-19T13:02:39.794Z,45.95
2022-08-19T13:05:10.750Z,46.27
2022-08-19T13:07:39.454Z,46.34
2022-08-19T13:10:12.040Z,46.37
2022-08-19T13:12:40.112Z,46.62
2022-08-19T13:15:11.273Z,45.54
2022-08-19T13:17:39.723Z,46.07
2022-08-19T13:20:09.764Z,45.72
2022-08-19T13:22:38.094Z,45.55
2022-08-19T13:25:06.596Z,46.01
2022-08-19T13:27:36.000Z,45.60
2022-08-19T13:30:23.041Z,46.27
2022-08-19T13:33:08.403Z,46.80
2022-08-19T13:35:36.509Z,46.38
2022-08-19T13:38:05.739Z,46.00
2022-08-19T13:40:37.344Z,45.59
2022-08-19T13:43:17.692Z,44.96
2022-08-19T13:45:51.702Z,44.86
2022-08-19T13:48:19.673Z,45.18
2022-08-19T13:50:48.991Z,45.86
2022-08-19T13:53:17.611Z,46.05
2022-08-19T13:55:45.704Z,46.73
2022-08-19T13:58:15.398Z,46.97
2022-08-19T14:00:45.712Z,47.83
2022-08-19T14:03:14.219Z,47.21
2022-08-19T14:05:42.014Z,47.60
2022-08-19T14:08:10.229Z,47.46
2022-08-19T14:10:37.919Z,47.34
2022-08-19T14:13:05.946Z,47.63
2022-08-19T14:15:35.139Z,47.62
2022-08-19T14:18:03.209Z,47.45
2022-08-19T14:20:30.866Z,48.32
2022-08-19T14:22:58.688Z,48.75
2022-08-19T14:25:28.207Z,49.09
2022-08-19T14:27:56.747Z,48.32
2022-08-19T14:30:27.730Z,48.25
2022-08-19T14:32:56.890Z,48.14
2022-08-19T14:35:25.003Z,47.91
2022-08-19T14:37:54.822Z,47.77
2022-08-19T14:40:26.656Z,48.19
2022-08-19T14:42:59.941Z,48.05
2022-08-19T14:45:29.068Z,48.13
2022-08-19T14:48:00.563Z,48.10
2022-08-19T14:50:28.589Z,47.98
2022-08-19T14:53:00.938Z,47.56
2022-08-19T14:55:28.894Z,47.72
2022-08-19T14:57:56.746Z,47.91
2022-08-19T15:00:26.262Z,47.43
2022-08-19T15:02:55.499Z,48.09
2022-08-19T15:05:25.051Z,48.35
2022-08-19T15:07:52.723Z,48.26
2022-08-19T15:10:20.537Z,48.37
2022-08-19T15:12:51.685Z,48.36
2022-08-19T15:15:20.777Z,47.95
2022-08-19T15:17:48.524Z,48.47
2022-08-19T15:20:19.999Z,48.22
2022-08-19T15:22:49.372Z,48.20
2022-08-19T15:25:19.330Z,48.34
2022-08-19T15:27:47.145Z,48.26
2022-08-19T15:30:21.970Z,48.02
2022-08-19T15:32:49.695Z,48.32
2022-08-19T15:35:19.282Z,48.89
2022-08-19T15:37:47.025Z,48.39
2022-08-19T15:40:16.213Z,48.76
2022-08-19T15:42:44.643Z,48.54
2022-08-19T15:45:13.391Z,48.62
2022-08-19T15:47:41.904Z,48.78
2022-08-19T15:50:13.614Z,48.94
2022-08-19T15:52:50.049Z,49.53
2022-08-19T15:55:33.341Z,49.82
2022-08-19T15:58:27.729Z,49.21
2022-08-19T16:01:14.737Z,49.53
2022-08-19T16:03:59.829Z,49.05
2022-08-19T16:06:27.782Z,49.67
2022-08-19T16:08:56.254Z,49.10
2022-08-19T16:11:30.416Z,49.47
2022-08-19T16:13:59.401Z,48.89
2022-08-19T16:16:31.021Z,49.58
2022-08-19T16:19:03.794Z,48.73
2022-08-19T16:21:33.390Z,48.73
2022-08-19T16:24:03.531Z,49.39
2022-08-19T16:26:33.441Z,49.50
2022-08-19T16:29:02.598Z,48.92
2022-08-19T16:31:31.078Z,48.72
2022-08-19T16:33:59.249Z,48.91
2022-08-19T16:36:28.374Z,48.96
2022-08-19T16:38:56.662Z,48.48
2022-08-19T16:41:28.702Z,48.88
2022-08-19T16:43:58.497Z,48.86
2022-08-19T16:46:27.659Z,48.86
2022-08-19T16:48:55.652Z,49.06
2022-08-19T16:51:23.616Z,49.23
2022-08-19T16:53:52.919Z,49.34
2022-08-19T16:56:21.336Z,48.66
2022-08-19T16:58:50.534Z,49.09
2022-08-19T17:01:19.818Z,49.14
2022-08-19T17:03:50.383Z,48.71
2022-08-19T17:06:20.796Z,49.21
2022-08-19T17:08:49.762Z,49.31
2022-08-19T17:11:18.896Z,49.13
2022-08-19T17:13:47.969Z,49.73
2022-08-19T17:16:16.375Z,49.96
2022-08-19T17:18:45.726Z,50.21
2022-08-19T17:21:13.449Z,50.09
2022-08-19T17:23:42.802Z,49.57
2022-08-19T17:26:17.223Z,49.72
2022-08-19T17:28:47.258Z,49.69
2022-08-19T17:31:15.165Z,49.57
2022-08-19T17:33:42.854Z,49.94
2022-08-19T17:36:17.807Z,49.79
2022-08-19T17:38:45.694Z,50.22
2022-08-19T17:41:13.307Z,50.68
2022-08-19T17:43:43.839Z,50.83
2022-08-19T17:46:17.605Z,50.73
2022-08-19T17:48:51.944Z,50.96
2022-08-19T17:51:24.781Z,51.07
2022-08-19T17:53:54.379Z,51.01
2022-08-19T17:56:23.526Z,51.02
2022-08-19T17:58:59.592Z,51.52
2022-08-19T18:01:30.046Z,51.79
2022-08-19T18:04:11.861Z,51.76
2022-08-19T18:06:41.645Z,52.23
2022-08-19T18:09:14.421Z,52.47
2022-08-19T18:11:43.818Z,52.64
2022-08-19T18:14:12.831Z,53.21
2022-08-19T18:16:40.626Z,53.00
2022-08-19T18:19:09.014Z,53.45
2022-08-19T18:21:36.736Z,53.63
2022-08-19T18:24:06.256Z,53.15
2022-08-19T18:26:34.838Z,53.61
2022-08-19T18:29:02.935Z,53.43
2022-08-19T18:31:30.605Z,52.98
2022-08-19T18:33:58.397Z,53.28
2022-08-19T18:36:51.955Z,53.51
2022-08-19T18:39:32.304Z,53.77
2022-08-19T18:42:17.483Z,53.34
2022-08-19T18:45:14.235Z,53.78
2022-08-19T18:47:59.520Z,54.09
2022-08-19T18:50:27.239Z,54.41
2022-08-19T18:52:54.839Z,54.52
2022-08-19T18:55:23.945Z,54.64
2022-08-19T18:57:51.950Z,54.86
2022-08-19T19:00:20.745Z,54.98
2022-08-19T19:02:48.618Z,55.18
2022-08-19T19:05:16.837Z,55.64
2022-08-19T19:07:44.562Z,55.69
2022-08-19T19:10:12.256Z,55.88
2022-08-19T19:12:44.552Z,56.19
2022-08-19T19:15:12.321Z,55.80
2022-08-19T19:17:41.930Z,56.06
2022-08-19T19:20:10.271Z,56.60
2022-08-19T19:22:37.893Z,56.74
2022-08-19T19:25:08.135Z,56.80
2022-08-19T19:27:35.810Z,57.00
2022-08-19T19:30:05.548Z,56.93
2022-08-19T19:32:39.193Z,57.07
2022-08-19T19:35:09.412Z,57.59
2022-08-19T19:37:37.059Z,57.50
2022-08-19T19:40:05.769Z,57.62
2022-08-19T19:42:33.433Z,57.96
2022-08-19T19:45:02.952Z,58.19
2022-08-19T19:47:32.084Z,58.76
2022-08-19T19:50:16.189Z,58.39
2022-08-19T19:52:46.766Z,59.04
2022-08-19T19:55:17.893Z,59.38
2022-08-19T19:57:46.259Z,59.35
2022-08-19T20:00:16.398Z,59.71
2022-08-19T20:02:49.867Z,60.17
2022-08-19T20:05:20.973Z,60.64
2022-08-19T20:08:06.081Z,61.13
2022-08-19T20:10:34.312Z,61.13
2022-08-19T20:13:03.525Z,61.42
2022-08-19T20:15:31.419Z,61.42
2022-08-19T20:18:02.254Z,61.73
2022-08-19T20:20:30.184Z,62.13
2022-08-19T20:22:57.790Z,62.64
2022-08-19T20:25:25.561Z,62.59
2022-08-19T20:27:53.303Z,62.36
2022-08-19T20:30:23.397Z,62.68
2022-08-19T20:32:51.496Z,63.16
2022-08-19T20:35:22.302Z,63.15
2022-08-19T20:37:52.868Z,63.20
2022-08-19T20:40:23.788Z,63.56
2022-08-19T20:42:51.487Z,63.24
2022-08-19T20:45:32.709Z,64.10
2022-08-19T20:48:02.320Z,64.29
2022-08-19T20:50:31.664Z,64.29
2022-08-19T20:53:00.553Z,64.06
2022-08-19T20:55:30.417Z,64.62
2022-08-19T20:57:58.575Z,65.07
2022-08-19T21:00:26.272Z,65.42
2022-08-19T21:02:53.886Z,65.24
2022-08-19T21:05:21.574Z,65.36
2022-08-19T21:07:50.688Z,65.46
2022-08-19T21:10:18.466Z,66.16
2022-08-19T21:12:46.700Z,66.05
2022-08-19T21:15:17.900Z,66.13
2022-08-19T21:17:46.509Z,65.99
2022-08-19T21:20:14.391Z,66.45
2022-08-19T21:22:42.038Z,66.21
2022-08-19T21:25:11.274Z,66.95
2022-08-19T21:27:39.203Z,67.41
2022-08-19T21:30:08.893Z,67.83
2022-08-19T21:35:04.538Z,67.75
2022-08-19T21:37:33.552Z,67.67
2022-08-19T21:40:01.589Z,67.61
2022-08-19T21:42:30.750Z,68.12
2022-08-19T21:44:58.535Z,68.46
2022-08-19T21:47:26.698Z,68.37
2022-08-19T21:49:54.799Z,68.62
2022-08-19T21:52:23.381Z,68.50
2022-08-19T21:54:51.007Z,69.04
2022-08-19T21:57:18.937Z,68.92
2022-08-19T21:59:47.980Z,69.23
2022-08-19T22:02:21.559Z,69.16
2022-08-19T22:04:50.821Z,68.69
2022-08-19T22:07:19.916Z,69.51
2022-08-19T22:09:49.420Z,69.23
2022-08-19T22:12:23.433Z,69.33
2022-08-19T22:14:53.437Z,69.46
2022-08-19T22:17:22.294Z,69.83
2022-08-19T22:19:50.962Z,70.05
2022-08-19T22:22:22.251Z,69.90
2022-08-19T22:24:50.272Z,69.78
2022-08-19T22:27:18.137Z,70.04
2022-08-19T22:29:46.022Z,70.41
2022-08-19T22:32:27.122Z,70.48
2022-08-19T22:34:58.644Z,70.90
2022-08-19T22:37:27.212Z,70.65
2022-08-19T22:39:55.250Z,71.31
2022-08-19T22:42:23.868Z,70.87
2022-08-19T22:44:51.855Z,71.04
2022-08-19T22:47:22.868Z,71.14
2022-08-19T22:49:54.928Z,71.67
2022-08-19T22:52:22.046Z,71.50
2022-08-19T22:54:51.988Z,71.89
2022-08-19T22:57:21.189Z,72.34
2022-08-19T22:59:50.585Z,72.63
2022-08-19T23:02:20.180Z,72.74
2022-08-19T23:04:49.807Z,72.89
2022-08-19T23:07:18.011Z,72.66
2022-08-19T23:09:51.528Z,72.32
2022-08-19T23:12:27.744Z,72.48
2022-08-19T23:14:56.008Z,73.00
2022-08-19T23:17:23.826Z,72.65
2022-08-19T23:19:53.512Z,72.94
2022-08-19T23:22:21.119Z,73.33
2022-08-19T23:24:56.222Z,73.00
2022-08-19T23:27:41.709Z,73.19
2022-08-19T23:30:29.221Z,72.97
2022-08-19T23:32:59.019Z,73.03
2022-08-19T23:35:33.322Z,73.14
2022-08-19T23:38:01.623Z,73.31
2022-08-19T23:40:29.392Z,73.46
2022-08-19T23:42:57.404Z,73.85
2022-08-19T23:45:27.462Z,73.60
2022-08-19T23:47:55.392Z,73.82
2022-08-19T23:50:23.875Z,73.83
2022-08-19T23:52:55.229Z,74.80
2022-08-19T23:55:25.492Z,74.88
2022-08-19T23:57:53.525Z,74.81
